sensor_id;sensor_type;location;lat;lon;timestamp;P1;durP1;ratioP1;P2;durP2;ratioP2
29210;SDS011;16250;49.932;10.980;2022-10-26T00:02:16;9.70;;;6.28;;
29210;SDS011;16250;49.932;10.980;2022-10-26T00:04:42;6.82;;;3.60;;
29210;SDS011;16250;49.932;10.980;2022-10-26T00:07:08;8.73;;;4.93;;
29210;SDS011;16250;49.932;10.980;2022-10-26T00:09:34;7.93;;;4.63;;
29210;SDS011;16250;49.932;10.980;2022-10-26T00:11:59;7.60;;;4.57;;
29210;SDS011;16250;49.932;10.980;2022-10-26T00:14:25;7.70;;;4.80;;
29210;SDS011;16250;49.932;10.980;2022-10-26T00:16:50;9.35;;;4.47;;
29210;SDS011;16250;49.932;10.980;2022-10-26T00:19:16;11.65;;;4.65;;
29210;SDS011;16250;49.932;10.980;2022-10-26T00:21:42;8.38;;;4.30;;
29210;SDS011;16250;49.932;10.980;2022-10-26T00:24:09;6.75;;;3.45;;
29210;SDS011;16250;49.932;10.980;2022-10-26T00:26:36;12.65;;;4.10;;
29210;SDS011;16250;49.932;10.980;2022-10-26T00:29:02;8.80;;;3.72;;
29210;SDS011;16250;49.932;10.980;2022-10-26T00:31:27;7.07;;;4.28;;
29210;SDS011;16250;49.932;10.980;2022-10-26T00:33:53;6.40;;;3.40;;
29210;SDS011;16250;49.932;10.980;2022-10-26T00:36:20;11.70;;;3.95;;
29210;SDS011;16250;49.932;10.980;2022-10-26T00:38:47;6.50;;;3.47;;
29210;SDS011;16250;49.932;10.980;2022-10-26T00:41:14;6.55;;;3.50;;
29210;SDS011;16250;49.932;10.980;2022-10-26T00:43:41;8.40;;;3.53;;
29210;SDS011;16250;49.932;10.980;2022-10-26T00:46:08;5.55;;;3.50;;
29210;SDS011;16250;49.932;10.980;2022-10-26T00:48:40;11.32;;;3.65;;
29210;SDS011;16250;49.932;10.980;2022-10-26T00:51:09;10.45;;;3.60;;
29210;SDS011;16250;49.932;10.980;2022-10-26T00:53:41;10.20;;;4.07;;
29210;SDS011;16250;49.932;10.980;2022-10-26T00:56:07;5.13;;;3.30;;
29210;SDS011;16250;49.932;10.980;2022-10-26T00:58:33;6.53;;;3.88;;
29210;SDS011;16250;49.932;10.980;2022-10-26T01:00:59;7.80;;;4.47;;
29210;SDS011;16250;49.932;10.980;2022-10-26T01:03:25;8.38;;;4.03;;
29210;SDS011;16250;49.932;10.980;2022-10-26T01:05:52;11.55;;;4.78;;
29210;SDS011;16250;49.932;10.980;2022-10-26T01:08:21;9.85;;;4.20;;
29210;SDS011;16250;49.932;10.980;2022-10-26T01:10:47;9.25;;;4.45;;
29210;SDS011;16250;49.932;10.980;2022-10-26T01:13:13;7.18;;;3.70;;
29210;SDS011;16250;49.932;10.980;2022-10-26T01:15:45;11.88;;;5.47;;
29210;SDS011;16250;49.932;10.980;2022-10-26T01:18:31;12.18;;;6.07;;
29210;SDS011;16250;49.932;10.980;2022-10-26T01:21:20;7.50;;;4.20;;
29210;SDS011;16250;49.932;10.980;2022-10-26T01:29:19;8.95;;;5.05;;
29210;SDS011;16250;49.932;10.980;2022-10-26T01:35:03;11.32;;;5.38;;
29210;SDS011;16250;49.932;10.980;2022-10-26T01:37:40;11.02;;;4.95;;
29210;SDS011;16250;49.932;10.980;2022-10-26T01:42:47;10.30;;;6.85;;
29210;SDS011;16250;49.932;10.980;2022-10-26T01:45:15;10.77;;;5.30;;
29210;SDS011;16250;49.932;10.980;2022-10-26T01:47:42;11.20;;;5.22;;
29210;SDS011;16250;49.932;10.980;2022-10-26T01:50:09;6.60;;;4.70;;
29210;SDS011;16250;49.932;10.980;2022-10-26T01:52:36;11.20;;;5.97;;
29210;SDS011;16250;49.932;10.980;2022-10-26T01:55:02;11.00;;;5.72;;
29210;SDS011;16250;49.932;10.980;2022-10-26T01:57:34;6.38;;;5.20;;
29210;SDS011;16250;49.932;10.980;2022-10-26T02:05:28;11.95;;;6.22;;
29210;SDS011;16250;49.932;10.980;2022-10-26T02:11:00;10.82;;;6.63;;
29210;SDS011;16250;49.932;10.980;2022-10-26T02:16:31;9.73;;;5.75;;
29210;SDS011;16250;49.932;10.980;2022-10-26T02:19:09;9.52;;;4.63;;
29210;SDS011;16250;49.932;10.980;2022-10-26T02:21:42;8.20;;;4.70;;
29210;SDS011;16250;49.932;10.980;2022-10-26T02:24:10;9.05;;;5.07;;
29210;SDS011;16250;49.932;10.980;2022-10-26T02:26:37;8.52;;;5.03;;
29210;SDS011;16250;49.932;10.980;2022-10-26T02:29:06;12.35;;;5.68;;
29210;SDS011;16250;49.932;10.980;2022-10-26T02:31:36;8.50;;;5.88;;
29210;SDS011;16250;49.932;10.980;2022-10-26T02:34:04;9.82;;;5.32;;
29210;SDS011;16250;49.932;10.980;2022-10-26T02:36:33;8.98;;;5.03;;
29210;SDS011;16250;49.932;10.980;2022-10-26T02:39:03;11.73;;;5.97;;
29210;SDS011;16250;49.932;10.980;2022-10-26T02:41:31;7.90;;;5.18;;
29210;SDS011;16250;49.932;10.980;2022-10-26T02:44:00;14.70;;;7.20;;
29210;SDS011;16250;49.932;10.980;2022-10-26T02:46:28;11.80;;;7.38;;
29210;SDS011;16250;49.932;10.980;2022-10-26T02:48:54;13.88;;;7.40;;
29210;SDS011;16250;49.932;10.980;2022-10-26T02:51:38;7.75;;;5.22;;
29210;SDS011;16250;49.932;10.980;2022-10-26T02:56:44;13.73;;;6.55;;
29210;SDS011;16250;49.932;10.980;2022-10-26T02:59:18;9.48;;;4.72;;
29210;SDS011;16250;49.932;10.980;2022-10-26T03:01:45;9.27;;;4.75;;
29210;SDS011;16250;49.932;10.980;2022-10-26T03:04:11;10.10;;;5.55;;
29210;SDS011;16250;49.932;10.980;2022-10-26T03:06:37;6.53;;;4.75;;
29210;SDS011;16250;49.932;10.980;2022-10-26T03:09:02;8.65;;;5.38;;
29210;SDS011;16250;49.932;10.980;2022-10-26T03:11:28;5.38;;;4.88;;
29210;SDS011;16250;49.932;10.980;2022-10-26T03:13:54;9.25;;;5.70;;
29210;SDS011;16250;49.932;10.980;2022-10-26T03:16:19;10.10;;;4.68;;
29210;SDS011;16250;49.932;10.980;2022-10-26T03:18:45;7.78;;;4.50;;
29210;SDS011;16250;49.932;10.980;2022-10-26T03:21:10;8.07;;;5.15;;
29210;SDS011;16250;49.932;10.980;2022-10-26T03:23:36;10.80;;;5.28;;
29210;SDS011;16250;49.932;10.980;2022-10-26T03:26:01;6.90;;;4.75;;
29210;SDS011;16250;49.932;10.980;2022-10-26T03:28:27;7.57;;;5.20;;
29210;SDS011;16250;49.932;10.980;2022-10-26T03:30:52;8.13;;;4.25;;
29210;SDS011;16250;49.932;10.980;2022-10-26T03:33:18;10.40;;;5.97;;
29210;SDS011;16250;49.932;10.980;2022-10-26T03:35:44;10.35;;;5.68;;
29210;SDS011;16250;49.932;10.980;2022-10-26T03:38:09;8.75;;;6.40;;
29210;SDS011;16250;49.932;10.980;2022-10-26T03:40:35;9.82;;;6.38;;
29210;SDS011;16250;49.932;10.980;2022-10-26T03:43:01;9.80;;;5.00;;
29210;SDS011;16250;49.932;10.980;2022-10-26T03:45:27;10.25;;;5.20;;
29210;SDS011;16250;49.932;10.980;2022-10-26T03:47:53;11.15;;;5.50;;
29210;SDS011;16250;49.932;10.980;2022-10-26T03:50:19;7.32;;;4.63;;
29210;SDS011;16250;49.932;10.980;2022-10-26T03:52:46;6.32;;;4.72;;
29210;SDS011;16250;49.932;10.980;2022-10-26T03:55:13;11.43;;;5.38;;
29210;SDS011;16250;49.932;10.980;2022-10-26T03:57:42;9.38;;;4.47;;
29210;SDS011;16250;49.932;10.980;2022-10-26T04:00:12;14.90;;;5.60;;
29210;SDS011;16250;49.932;10.980;2022-10-26T04:02:45;11.88;;;4.32;;
29210;SDS011;16250;49.932;10.980;2022-10-26T04:07:43;9.63;;;5.47;;
29210;SDS011;16250;49.932;10.980;2022-10-26T04:10:08;10.82;;;5.28;;
29210;SDS011;16250;49.932;10.980;2022-10-26T04:12:35;12.43;;;7.05;;
29210;SDS011;16250;49.932;10.980;2022-10-26T04:15:02;11.38;;;6.70;;
29210;SDS011;16250;49.932;10.980;2022-10-26T04:17:28;14.50;;;6.47;;
29210;SDS011;16250;49.932;10.980;2022-10-26T04:19:53;13.25;;;6.82;;
29210;SDS011;16250;49.932;10.980;2022-10-26T04:22:19;12.35;;;6.80;;
29210;SDS011;16250;49.932;10.980;2022-10-26T04:24:44;10.00;;;6.68;;
29210;SDS011;16250;49.932;10.980;2022-10-26T04:27:10;8.43;;;5.55;;
29210;SDS011;16250;49.932;10.980;2022-10-26T04:29:35;11.60;;;6.63;;
29210;SDS011;16250;49.932;10.980;2022-10-26T04:32:01;7.22;;;5.20;;
29210;SDS011;16250;49.932;10.980;2022-10-26T04:34:27;9.23;;;5.70;;
29210;SDS011;16250;49.932;10.980;2022-10-26T04:36:52;10.60;;;5.93;;
29210;SDS011;16250;49.932;10.980;2022-10-26T04:39:19;10.52;;;5.93;;
29210;SDS011;16250;49.932;10.980;2022-10-26T04:41:44;9.13;;;5.30;;
29210;SDS011;16250;49.932;10.980;2022-10-26T04:44:10;9.57;;;5.50;;
29210;SDS011;16250;49.932;10.980;2022-10-26T04:46:35;8.50;;;5.60;;
29210;SDS011;16250;49.932;10.980;2022-10-26T04:49:01;7.47;;;5.82;;
29210;SDS011;16250;49.932;10.980;2022-10-26T04:51:26;7.85;;;5.50;;
29210;SDS011;16250;49.932;10.980;2022-10-26T04:53:52;9.18;;;5.68;;
29210;SDS011;16250;49.932;10.980;2022-10-26T04:56:18;7.45;;;4.82;;
29210;SDS011;16250;49.932;10.980;2022-10-26T04:58:44;10.85;;;6.78;;
29210;SDS011;16250;49.932;10.980;2022-10-26T05:01:09;9.90;;;4.97;;
29210;SDS011;16250;49.932;10.980;2022-10-26T05:03:35;9.80;;;5.47;;
29210;SDS011;16250;49.932;10.980;2022-10-26T05:06:00;10.23;;;5.93;;
29210;SDS011;16250;49.932;10.980;2022-10-26T05:08:26;9.65;;;5.30;;
29210;SDS011;16250;49.932;10.980;2022-10-26T05:10:53;12.52;;;6.25;;
29210;SDS011;16250;49.932;10.980;2022-10-26T05:13:19;9.73;;;6.03;;
29210;SDS011;16250;49.932;10.980;2022-10-26T05:15:44;9.93;;;6.38;;
29210;SDS011;16250;49.932;10.980;2022-10-26T05:18:10;9.88;;;7.40;;
29210;SDS011;16250;49.932;10.980;2022-10-26T05:20:36;10.60;;;6.53;;
29210;SDS011;16250;49.932;10.980;2022-10-26T05:23:06;7.47;;;5.80;;
29210;SDS011;16250;49.932;10.980;2022-10-26T05:25:34;11.52;;;6.55;;
29210;SDS011;16250;49.932;10.980;2022-10-26T05:28:02;9.98;;;6.15;;
29210;SDS011;16250;49.932;10.980;2022-10-26T05:30:29;9.00;;;6.15;;
29210;SDS011;16250;49.932;10.980;2022-10-26T05:32:59;8.73;;;5.68;;
29210;SDS011;16250;49.932;10.980;2022-10-26T05:35:27;14.00;;;7.22;;
29210;SDS011;16250;49.932;10.980;2022-10-26T05:37:53;11.20;;;6.55;;
29210;SDS011;16250;49.932;10.980;2022-10-26T05:40:18;9.48;;;5.65;;
29210;SDS011;16250;49.932;10.980;2022-10-26T05:42:44;11.38;;;5.70;;
29210;SDS011;16250;49.932;10.980;2022-10-26T05:45:10;9.40;;;5.85;;
29210;SDS011;16250;49.932;10.980;2022-10-26T05:47:39;10.63;;;5.30;;
29210;SDS011;16250;49.932;10.980;2022-10-26T05:50:06;9.23;;;5.78;;
29210;SDS011;16250;49.932;10.980;2022-10-26T05:52:45;8.68;;;5.47;;
29210;SDS011;16250;49.932;10.980;2022-10-26T05:55:13;10.60;;;6.47;;
29210;SDS011;16250;49.932;10.980;2022-10-26T05:57:40;18.42;;;9.45;;
29210;SDS011;16250;49.932;10.980;2022-10-26T06:00:11;12.43;;;7.68;;
29210;SDS011;16250;49.932;10.980;2022-10-26T06:05:54;12.27;;;9.48;;
29210;SDS011;16250;49.932;10.980;2022-10-26T06:08:21;11.60;;;8.60;;
29210;SDS011;16250;49.932;10.980;2022-10-26T06:10:49;13.50;;;8.65;;
29210;SDS011;16250;49.932;10.980;2022-10-26T06:13:16;17.35;;;9.27;;
29210;SDS011;16250;49.932;10.980;2022-10-26T06:15:45;15.05;;;10.00;;
29210;SDS011;16250;49.932;10.980;2022-10-26T06:31:46;13.32;;;8.77;;
29210;SDS011;16250;49.932;10.980;2022-10-26T06:34:13;17.65;;;12.70;;
29210;SDS011;16250;49.932;10.980;2022-10-26T06:36:57;45.58;;;34.17;;
29210;SDS011;16250;49.932;10.980;2022-10-26T06:39:24;58.50;;;42.85;;
29210;SDS011;16250;49.932;10.980;2022-10-26T06:41:53;39.25;;;30.52;;
29210;SDS011;16250;49.932;10.980;2022-10-26T06:44:22;27.45;;;19.75;;
29210;SDS011;16250;49.932;10.980;2022-10-26T06:49:28;12.77;;;11.07;;
29210;SDS011;16250;49.932;10.980;2022-10-26T06:52:00;9.23;;;6.88;;
29210;SDS011;16250;49.932;10.980;2022-10-26T06:54:47;12.15;;;6.88;;
29210;SDS011;16250;49.932;10.980;2022-10-26T06:57:16;9.80;;;7.15;;
29210;SDS011;16250;49.932;10.980;2022-10-26T06:59:50;8.00;;;6.72;;
29210;SDS011;16250;49.932;10.980;2022-10-26T07:02:21;12.10;;;9.73;;
29210;SDS011;16250;49.932;10.980;2022-10-26T07:04:47;31.52;;;23.75;;
29210;SDS011;16250;49.932;10.980;2022-10-26T07:07:13;19.42;;;16.50;;
29210;SDS011;16250;49.932;10.980;2022-10-26T07:09:43;69.75;;;44.35;;
29210;SDS011;16250;49.932;10.980;2022-10-26T07:12:09;160.75;;;121.03;;
29210;SDS011;16250;49.932;10.980;2022-10-26T07:14:34;756.28;;;539.08;;
29210;SDS011;16250;49.932;10.980;2022-10-26T07:17:00;427.33;;;309.63;;
29210;SDS011;16250;49.932;10.980;2022-10-26T07:19:26;57.75;;;37.35;;
29210;SDS011;16250;49.932;10.980;2022-10-26T07:21:54;31.98;;;23.58;;
29210;SDS011;16250;49.932;10.980;2022-10-26T07:24:21;47.20;;;33.35;;
29210;SDS011;16250;49.932;10.980;2022-10-26T07:26:47;36.03;;;26.90;;
29210;SDS011;16250;49.932;10.980;2022-10-26T07:29:13;39.97;;;28.35;;
29210;SDS011;16250;49.932;10.980;2022-10-26T07:31:40;39.65;;;28.90;;
29210;SDS011;16250;49.932;10.980;2022-10-26T07:34:06;40.30;;;28.83;;
29210;SDS011;16250;49.932;10.980;2022-10-26T07:36:31;30.63;;;23.58;;
29210;SDS011;16250;49.932;10.980;2022-10-26T07:38:57;21.25;;;13.82;;
29210;SDS011;16250;49.932;10.980;2022-10-26T07:41:23;11.43;;;9.85;;
29210;SDS011;16250;49.932;10.980;2022-10-26T07:43:48;13.93;;;10.38;;
29210;SDS011;16250;49.932;10.980;2022-10-26T07:46:14;9.82;;;8.68;;
29210;SDS011;16250;49.932;10.980;2022-10-26T07:48:41;11.00;;;7.80;;
29210;SDS011;16250;49.932;10.980;2022-10-26T07:51:06;14.02;;;11.30;;
29210;SDS011;16250;49.932;10.980;2022-10-26T07:53:32;15.00;;;11.00;;
29210;SDS011;16250;49.932;10.980;2022-10-26T07:55:58;14.82;;;11.20;;
29210;SDS011;16250;49.932;10.980;2022-10-26T07:58:23;11.75;;;9.63;;
29210;SDS011;16250;49.932;10.980;2022-10-26T08:00:53;12.35;;;10.38;;
29210;SDS011;16250;49.932;10.980;2022-10-26T08:03:19;12.25;;;9.90;;
29210;SDS011;16250;49.932;10.980;2022-10-26T08:05:45;13.82;;;10.02;;
29210;SDS011;16250;49.932;10.980;2022-10-26T08:08:12;12.43;;;10.93;;
29210;SDS011;16250;49.932;10.980;2022-10-26T08:10:41;15.13;;;10.63;;
29210;SDS011;16250;49.932;10.980;2022-10-26T08:13:07;11.00;;;9.07;;
29210;SDS011;16250;49.932;10.980;2022-10-26T08:15:33;11.45;;;6.80;;
29210;SDS011;16250;49.932;10.980;2022-10-26T08:17:59;8.15;;;6.72;;
29210;SDS011;16250;49.932;10.980;2022-10-26T08:20:24;14.25;;;12.65;;
29210;SDS011;16250;49.932;10.980;2022-10-26T08:22:50;12.05;;;10.02;;
29210;SDS011;16250;49.932;10.980;2022-10-26T08:25:16;19.40;;;12.35;;
29210;SDS011;16250;49.932;10.980;2022-10-26T08:27:42;18.55;;;14.38;;
29210;SDS011;16250;49.932;10.980;2022-10-26T08:30:08;14.70;;;10.23;;
29210;SDS011;16250;49.932;10.980;2022-10-26T08:32:34;10.20;;;9.00;;
29210;SDS011;16250;49.932;10.980;2022-10-26T08:34:59;11.68;;;7.82;;
29210;SDS011;16250;49.932;10.980;2022-10-26T08:37:25;10.13;;;7.70;;
29210;SDS011;16250;49.932;10.980;2022-10-26T08:39:51;10.15;;;7.18;;
29210;SDS011;16250;49.932;10.980;2022-10-26T08:45:03;9.88;;;8.18;;
29210;SDS011;16250;49.932;10.980;2022-10-26T08:47:38;10.18;;;6.93;;
29210;SDS011;16250;49.932;10.980;2022-10-26T08:50:12;14.13;;;10.52;;
29210;SDS011;16250;49.932;10.980;2022-10-26T08:53:07;19.55;;;10.68;;
29210;SDS011;16250;49.932;10.980;2022-10-26T08:55:42;9.43;;;7.88;;
29210;SDS011;16250;49.932;10.980;2022-10-26T08:58:15;9.13;;;6.43;;
29210;SDS011;16250;49.932;10.980;2022-10-26T09:00:43;7.65;;;5.00;;
29210;SDS011;16250;49.932;10.980;2022-10-26T09:03:14;8.25;;;4.95;;
29210;SDS011;16250;49.932;10.980;2022-10-26T09:08:49;6.90;;;4.03;;
29210;SDS011;16250;49.932;10.980;2022-10-26T09:11:07;6.30;;;3.58;;
29210;SDS011;16250;49.932;10.980;2022-10-26T09:13:58;6.93;;;4.50;;
29210;SDS011;16250;49.932;10.980;2022-10-26T09:19:45;8.82;;;4.13;;
29210;SDS011;16250;49.932;10.980;2022-10-26T09:22:29;6.40;;;3.53;;
29210;SDS011;16250;49.932;10.980;2022-10-26T09:25:18;3.95;;;3.28;;
29210;SDS011;16250;49.932;10.980;2022-10-26T09:27:53;5.88;;;3.22;;
29210;SDS011;16250;49.932;10.980;2022-10-26T09:30:25;5.57;;;3.78;;
29210;SDS011;16250;49.932;10.980;2022-10-26T09:35:24;6.00;;;3.33;;
29210;SDS011;16250;49.932;10.980;2022-10-26T09:37:54;7.53;;;3.60;;
29210;SDS011;16250;49.932;10.980;2022-10-26T09:40:34;8.00;;;5.43;;
29210;SDS011;16250;49.932;10.980;2022-10-26T09:43:13;6.22;;;3.17;;
29210;SDS011;16250;49.932;10.980;2022-10-26T09:45:59;6.72;;;3.88;;
29210;SDS011;16250;49.932;10.980;2022-10-26T09:48:41;9.27;;;3.33;;
29210;SDS011;16250;49.932;10.980;2022-10-26T09:51:09;8.75;;;3.65;;
29210;SDS011;16250;49.932;10.980;2022-10-26T09:53:35;6.82;;;3.75;;
29210;SDS011;16250;49.932;10.980;2022-10-26T09:59:00;7.63;;;3.42;;
29210;SDS011;16250;49.932;10.980;2022-10-26T10:06:41;7.60;;;3.90;;
29210;SDS011;16250;49.932;10.980;2022-10-26T10:14:21;5.53;;;3.65;;
29210;SDS011;16250;49.932;10.980;2022-10-26T10:16:52;7.30;;;3.47;;
29210;SDS011;16250;49.932;10.980;2022-10-26T10:19:33;5.82;;;3.60;;
29210;SDS011;16250;49.932;10.980;2022-10-26T10:22:00;8.15;;;3.70;;
29210;SDS011;16250;49.932;10.980;2022-10-26T10:24:33;7.75;;;3.20;;
29210;SDS011;16250;49.932;10.980;2022-10-26T10:27:19;6.97;;;3.90;;
29210;SDS011;16250;49.932;10.980;2022-10-26T10:32:15;6.38;;;4.13;;
29210;SDS011;16250;49.932;10.980;2022-10-26T10:34:44;8.57;;;4.13;;
29210;SDS011;16250;49.932;10.980;2022-10-26T10:37:29;7.93;;;3.50;;
29210;SDS011;16250;49.932;10.980;2022-10-26T10:40:03;5.32;;;3.30;;
29210;SDS011;16250;49.932;10.980;2022-10-26T10:42:33;4.85;;;2.83;;
29210;SDS011;16250;49.932;10.980;2022-10-26T10:45:04;8.88;;;3.15;;
29210;SDS011;16250;49.932;10.980;2022-10-26T10:47:32;5.45;;;3.00;;
29210;SDS011;16250;49.932;10.980;2022-10-26T10:50:18;6.60;;;3.20;;
29210;SDS011;16250;49.932;10.980;2022-10-26T10:52:44;13.77;;;3.30;;
29210;SDS011;16250;49.932;10.980;2022-10-26T11:00:36;5.47;;;2.38;;
29210;SDS011;16250;49.932;10.980;2022-10-26T11:06:21;6.40;;;3.13;;
29210;SDS011;16250;49.932;10.980;2022-10-26T11:11:28;5.07;;;2.50;;
29210;SDS011;16250;49.932;10.980;2022-10-26T11:16:32;6.20;;;2.70;;
29210;SDS011;16250;49.932;10.980;2022-10-26T11:21:49;6.93;;;3.00;;
29210;SDS011;16250;49.932;10.980;2022-10-26T11:29:37;5.63;;;2.80;;
29210;SDS011;16250;49.932;10.980;2022-10-26T11:32:22;5.43;;;2.63;;
29210;SDS011;16250;49.932;10.980;2022-10-26T11:34:59;4.93;;;2.90;;
29210;SDS011;16250;49.932;10.980;2022-10-26T11:37:29;6.68;;;2.55;;
29210;SDS011;16250;49.932;10.980;2022-10-26T11:40:12;7.03;;;2.45;;
29210;SDS011;16250;49.932;10.980;2022-10-26T11:45:40;9.27;;;3.20;;
29210;SDS011;16250;49.932;10.980;2022-10-26T11:48:23;5.28;;;2.72;;
29210;SDS011;16250;49.932;10.980;2022-10-26T11:50:58;8.88;;;2.67;;
29210;SDS011;16250;49.932;10.980;2022-10-26T11:53:25;6.05;;;2.70;;
29210;SDS011;16250;49.932;10.980;2022-10-26T11:55:55;6.28;;;2.80;;
29210;SDS011;16250;49.932;10.980;2022-10-26T11:58:24;4.78;;;2.60;;
29210;SDS011;16250;49.932;10.980;2022-10-26T12:00:54;5.90;;;3.00;;
29210;SDS011;16250;49.932;10.980;2022-10-26T12:03:31;4.95;;;2.65;;
29210;SDS011;16250;49.932;10.980;2022-10-26T12:06:01;6.20;;;2.80;;
29210;SDS011;16250;49.932;10.980;2022-10-26T12:08:37;7.22;;;2.83;;
29210;SDS011;16250;49.932;10.980;2022-10-26T12:11:24;5.40;;;2.80;;
29210;SDS011;16250;49.932;10.980;2022-10-26T12:19:17;6.57;;;3.00;;
29210;SDS011;16250;49.932;10.980;2022-10-26T12:21:53;7.82;;;2.60;;
29210;SDS011;16250;49.932;10.980;2022-10-26T12:32:03;6.32;;;2.38;;
29210;SDS011;16250;49.932;10.980;2022-10-26T12:37:22;4.65;;;2.88;;
29210;SDS011;16250;49.932;10.980;2022-10-26T12:39:54;8.82;;;2.90;;
29210;SDS011;16250;49.932;10.980;2022-10-26T12:42:55;8.82;;;3.22;;
29210;SDS011;16250;49.932;10.980;2022-10-26T12:45:21;6.68;;;3.30;;
29210;SDS011;16250;49.932;10.980;2022-10-26T12:55:55;5.57;;;2.60;;
29210;SDS011;16250;49.932;10.980;2022-10-26T13:09:19;5.57;;;2.80;;
29210;SDS011;16250;49.932;10.980;2022-10-26T13:11:53;5.68;;;2.85;;
29210;SDS011;16250;49.932;10.980;2022-10-26T13:14:28;9.25;;;3.28;;
29210;SDS011;16250;49.932;10.980;2022-10-26T13:16:58;7.90;;;3.10;;
29210;SDS011;16250;49.932;10.980;2022-10-26T13:19:30;7.45;;;2.80;;
29210;SDS011;16250;49.932;10.980;2022-10-26T13:22:02;4.63;;;2.40;;
29210;SDS011;16250;49.932;10.980;2022-10-26T13:24:29;6.43;;;3.10;;
29210;SDS011;16250;49.932;10.980;2022-10-26T13:27:42;5.72;;;2.97;;
29210;SDS011;16250;49.932;10.980;2022-10-26T13:30:09;6.20;;;3.72;;
29210;SDS011;16250;49.932;10.980;2022-10-26T13:32:40;6.60;;;3.10;;
29210;SDS011;16250;49.932;10.980;2022-10-26T13:35:12;8.45;;;3.08;;
29210;SDS011;16250;49.932;10.980;2022-10-26T13:37:43;8.10;;;2.85;;
29210;SDS011;16250;49.932;10.980;2022-10-26T13:40:13;5.85;;;3.15;;
29210;SDS011;16250;49.932;10.980;2022-10-26T13:42:49;8.00;;;3.47;;
29210;SDS011;16250;49.932;10.980;2022-10-26T13:45:26;6.22;;;3.08;;
29210;SDS011;16250;49.932;10.980;2022-10-26T13:47:57;6.57;;;3.53;;
29210;SDS011;16250;49.932;10.980;2022-10-26T13:50:39;5.53;;;3.30;;
29210;SDS011;16250;49.932;10.980;2022-10-26T13:59:10;4.25;;;3.03;;
29210;SDS011;16250;49.932;10.980;2022-10-26T14:01:37;8.05;;;3.00;;
29210;SDS011;16250;49.932;10.980;2022-10-26T14:04:15;6.50;;;2.67;;
29210;SDS011;16250;49.932;10.980;2022-10-26T14:06:45;6.03;;;2.83;;
29210;SDS011;16250;49.932;10.980;2022-10-26T14:09:15;4.93;;;2.97;;
29210;SDS011;16250;49.932;10.980;2022-10-26T14:14:12;4.90;;;3.03;;
29210;SDS011;16250;49.932;10.980;2022-10-26T14:16:41;7.20;;;3.53;;
29210;SDS011;16250;49.932;10.980;2022-10-26T14:19:32;5.90;;;2.90;;
29210;SDS011;16250;49.932;10.980;2022-10-26T14:22:03;6.85;;;2.58;;
29210;SDS011;16250;49.932;10.980;2022-10-26T14:24:30;7.05;;;3.10;;
29210;SDS011;16250;49.932;10.980;2022-10-26T14:26:57;10.27;;;3.35;;
29210;SDS011;16250;49.932;10.980;2022-10-26T14:29:24;6.53;;;3.20;;
29210;SDS011;16250;49.932;10.980;2022-10-26T14:31:52;8.90;;;4.05;;
29210;SDS011;16250;49.932;10.980;2022-10-26T14:34:21;8.85;;;4.13;;
29210;SDS011;16250;49.932;10.980;2022-10-26T14:36:51;11.18;;;3.30;;
29210;SDS011;16250;49.932;10.980;2022-10-26T14:39:30;9.85;;;3.85;;
29210;SDS011;16250;49.932;10.980;2022-10-26T14:47:55;7.63;;;3.00;;
29210;SDS011;16250;49.932;10.980;2022-10-26T14:50:22;8.55;;;3.47;;
29210;SDS011;16250;49.932;10.980;2022-10-26T14:52:55;6.47;;;3.83;;
29210;SDS011;16250;49.932;10.980;2022-10-26T14:55:24;7.97;;;3.90;;
29210;SDS011;16250;49.932;10.980;2022-10-26T14:57:52;10.00;;;4.93;;
29210;SDS011;16250;49.932;10.980;2022-10-26T15:00:32;5.43;;;3.28;;
29210;SDS011;16250;49.932;10.980;2022-10-26T15:02:58;7.65;;;3.58;;
29210;SDS011;16250;49.932;10.980;2022-10-26T15:07:56;7.50;;;3.97;;
29210;SDS011;16250;49.932;10.980;2022-10-26T15:13:09;8.93;;;3.85;;
29210;SDS011;16250;49.932;10.980;2022-10-26T15:15:42;9.23;;;4.10;;
29210;SDS011;16250;49.932;10.980;2022-10-26T15:18:20;9.63;;;4.70;;
29210;SDS011;16250;49.932;10.980;2022-10-26T15:21:18;10.95;;;4.85;;
29210;SDS011;16250;49.932;10.980;2022-10-26T15:23:47;11.27;;;5.60;;
29210;SDS011;16250;49.932;10.980;2022-10-26T15:26:13;12.15;;;4.90;;
29210;SDS011;16250;49.932;10.980;2022-10-26T15:28:39;14.27;;;6.10;;
29210;SDS011;16250;49.932;10.980;2022-10-26T15:33:34;12.80;;;5.65;;
29210;SDS011;16250;49.932;10.980;2022-10-26T15:36:08;10.45;;;5.10;;
29210;SDS011;16250;49.932;10.980;2022-10-26T15:38:37;7.47;;;3.90;;
29210;SDS011;16250;49.932;10.980;2022-10-26T15:41:03;8.20;;;4.65;;
29210;SDS011;16250;49.932;10.980;2022-10-26T15:43:30;7.68;;;4.38;;
29210;SDS011;16250;49.932;10.980;2022-10-26T15:45:55;9.32;;;4.03;;
29210;SDS011;16250;49.932;10.980;2022-10-26T15:48:22;8.02;;;4.30;;
29210;SDS011;16250;49.932;10.980;2022-10-26T15:50:51;9.88;;;5.53;;
29210;SDS011;16250;49.932;10.980;2022-10-26T15:53:18;15.32;;;7.60;;
29210;SDS011;16250;49.932;10.980;2022-10-26T15:55:45;12.75;;;7.80;;
29210;SDS011;16250;49.932;10.980;2022-10-26T15:58:11;12.85;;;9.02;;
29210;SDS011;16250;49.932;10.980;2022-10-26T16:00:38;13.60;;;6.57;;
29210;SDS011;16250;49.932;10.980;2022-10-26T16:03:03;10.13;;;5.93;;
29210;SDS011;16250;49.932;10.980;2022-10-26T16:05:29;10.50;;;5.90;;
29210;SDS011;16250;49.932;10.980;2022-10-26T16:07:55;7.32;;;4.10;;
29210;SDS011;16250;49.932;10.980;2022-10-26T16:10:21;7.45;;;4.13;;
29210;SDS011;16250;49.932;10.980;2022-10-26T16:12:48;13.35;;;5.10;;
29210;SDS011;16250;49.932;10.980;2022-10-26T16:15:18;8.05;;;4.65;;
29210;SDS011;16250;49.932;10.980;2022-10-26T16:17:46;6.80;;;4.55;;
29210;SDS011;16250;49.932;10.980;2022-10-26T16:20:12;6.15;;;4.22;;
29210;SDS011;16250;49.932;10.980;2022-10-26T16:22:40;8.85;;;4.60;;
29210;SDS011;16250;49.932;10.980;2022-10-26T16:25:10;9.77;;;5.50;;
29210;SDS011;16250;49.932;10.980;2022-10-26T16:27:37;12.23;;;5.82;;
29210;SDS011;16250;49.932;10.980;2022-10-26T16:30:02;11.07;;;5.25;;
29210;SDS011;16250;49.932;10.980;2022-10-26T16:32:28;9.27;;;5.88;;
29210;SDS011;16250;49.932;10.980;2022-10-26T16:34:54;11.18;;;5.60;;
29210;SDS011;16250;49.932;10.980;2022-10-26T16:37:19;9.00;;;6.15;;
29210;SDS011;16250;49.932;10.980;2022-10-26T16:39:45;12.45;;;6.90;;
29210;SDS011;16250;49.932;10.980;2022-10-26T16:42:10;8.48;;;5.45;;
29210;SDS011;16250;49.932;10.980;2022-10-26T16:44:36;12.35;;;6.07;;
29210;SDS011;16250;49.932;10.980;2022-10-26T16:47:02;15.00;;;6.13;;
29210;SDS011;16250;49.932;10.980;2022-10-26T16:49:27;10.90;;;5.55;;
29210;SDS011;16250;49.932;10.980;2022-10-26T16:51:53;10.05;;;5.40;;
29210;SDS011;16250;49.932;10.980;2022-10-26T16:54:19;11.43;;;6.10;;
29210;SDS011;16250;49.932;10.980;2022-10-26T16:56:45;12.30;;;5.75;;
29210;SDS011;16250;49.932;10.980;2022-10-26T16:59:10;13.05;;;5.40;;
29210;SDS011;16250;49.932;10.980;2022-10-26T17:01:36;10.93;;;5.07;;
29210;SDS011;16250;49.932;10.980;2022-10-26T17:04:02;16.73;;;6.57;;
29210;SDS011;16250;49.932;10.980;2022-10-26T17:06:27;9.57;;;5.18;;
29210;SDS011;16250;49.932;10.980;2022-10-26T17:08:53;10.90;;;5.57;;
29210;SDS011;16250;49.932;10.980;2022-10-26T17:11:19;11.98;;;7.18;;
29210;SDS011;16250;49.932;10.980;2022-10-26T17:13:45;12.25;;;6.35;;
29210;SDS011;16250;49.932;10.980;2022-10-26T17:16:16;7.05;;;5.63;;
29210;SDS011;16250;49.932;10.980;2022-10-26T17:18:43;10.13;;;5.97;;